This demonstration page uses our WeatherBlox Daily Observations layout. Learn more.

39.29038, -76.61219

Hourly Observations for September 19, 2019

Temp ( °F °C ) Dew Point ( °F °C ) Humidity (%) Winds ( mph kmh ) Pressure ( in mb ) Visibility ( mi km ) Precip ( " mm )
12:54 am 00:54 undefined 63 17.2 52 11.1 68 68 undefined N/A 30.29 1026 N/A 0 0
1:54 am 01:54 undefined 62 16.7 51 10.6 67 67 undefined N/A 30.3 1026 N/A 0 0
2:54 am 02:54 undefined 62 16.7 51 10.6 67 67 undefined N/A 30.29 1026 N/A 0 0
3:54 am 03:54 undefined 62 16.7 52 11.1 70 70 undefined N/A 30.3 1026 N/A 0 0
4:54 am 04:54 undefined 61 16.1 50 10 67 67 undefined N/A 30.31 1027 N/A 0 0
5:54 am 05:54 undefined 60 15.6 50 10 70 70 undefined N/A 30.32 1027 N/A 0 0
6:54 am 06:54 undefined 59 15 49 9.4 69 69 undefined N/A 30.33 1027 N/A 0 0
7:54 am 07:54 undefined 60 15.6 50 10 70 70 undefined N/A 30.34 1027 N/A 0 0
8:54 am 08:54 undefined 61 16.1 50 10 67 67 undefined N/A 30.35 1028 N/A 0 0
9:54 am 09:54 undefined 64 17.8 49 9.4 58 58 undefined N/A 30.37 1028 N/A 0 0
10:54 am 10:54 undefined 66 18.9 44 6.7 45 45 undefined N/A 30.37 1028 N/A 0 0
11:54 am 11:54 undefined 68 20 43 6.1 40 40 undefined N/A 30.36 1028 N/A 0 0
12:54 pm 12:54 undefined 71 21.7 39 3.9 31 31 undefined N/A 30.35 1028 N/A 0 0
1:54 pm 13:54 undefined 71 21.7 42 5.6 35 35 undefined N/A 30.34 1027 N/A 0 0
2:54 pm 14:54 undefined 70 21.1 42 5.6 37 37 undefined N/A 30.32 1027 N/A 0 0
3:54 pm 15:54 undefined 73 22.8 42 5.6 33 33 undefined N/A 30.3 1026 N/A 0 0
4:54 pm 16:54 undefined 71 21.7 45 7.2 39 39 undefined N/A 30.3 1026 N/A 0 0
5:54 pm 17:54 undefined 68 20 46 7.8 45 45 undefined N/A 30.3 1026 N/A 0 0
6:54 pm 18:54 undefined 68 20 46 7.8 45 45 undefined N/A 30.31 1026 N/A 0 0
7:54 pm 19:54 undefined 67 19.4 46 7.8 47 47 undefined N/A 30.3 1026 N/A 0 0
8:54 pm 20:54 undefined 66 18.9 46 7.8 49 49 undefined N/A 30.3 1026 N/A 0 0
9:54 pm 21:54 undefined 65 18.3 48 8.9 54 54 undefined N/A 30.29 1026 N/A 0 0
10:54 pm 22:54 undefined 63 17.2 48 8.9 58 58 undefined N/A 30.29 1026 N/A 0 0
11:54 pm 23:54 undefined 63 17.2 50 10 63 63 undefined N/A 30.29 1026 N/A 0 0

Powered by AerisWeather